Time;durP1;ratioP1;P1;durP2;ratioP2;P2;SDS_P1;SDS_P2;PMS_P1;PMS_P2;Temp;Humidity;BMP_temperature;BMP_pressure;BME280_temperature;BME280_humidity;BME280_pressure;Samples;Min_cycle;Max_cycle;Signal;HPM_P1;HPM_P2
2023/02/21 02:15:05;;;;;;;0.00;0.00;;;;;;;9.20;99.10;100859.53;6211758;23;20226;-72
2023/02/21 02:17:56;;;;;;;0.00;0.00;;;;;;;9.19;99.21;100849.69;6215692;23;20792;-72
2023/02/21 02:20:41;;;;;;;0.00;0.00;;;;;;;9.23;99.83;100856.31;6181564;23;20012;-71
2023/02/21 02:23:09;;;;;;;0.05;0.05;;;;;;;9.20;99.21;100851.34;6184058;23;20111;-71
2023/02/21 02:26:13;;;;;;;0.00;0.00;;;;;;;9.14;98.75;100841.44;6214430;23;20005;-72
2023/02/21 02:29:30;;;;;;;0.00;0.00;;;;;;;9.07;99.03;100840.75;6178726;23;20055;-72
2023/02/21 02:32:17;;;;;;;0.00;0.00;;;;;;;9.03;99.01;100845.03;6122172;23;20005;-74
2023/02/21 02:34:58;;;;;;;0.00;0.00;;;;;;;9.00;99.10;100840.09;6126014;23;20436;-74
2023/02/21 02:37:24;;;;;;;0.00;0.00;;;;;;;9.00;98.81;100834.63;6187523;23;20013;-74
2023/02/21 02:40:16;;;;;;;0.00;0.00;;;;;;;8.97;98.87;100841.41;6186181;23;20011;-73
2023/02/21 02:43:12;;;;;;;0.00;0.00;;;;;;;8.97;99.35;100835.13;6189305;23;20032;-74
2023/02/21 02:46:01;;;;;;;0.00;0.00;;;;;;;8.97;99.64;100832.41;6215118;23;20063;-75
2023/02/21 02:48:41;;;;;;;0.00;0.00;;;;;;;8.93;98.60;100833.94;6191421;23;20012;-73
2023/02/21 02:51:12;;;;;;;0.00;0.00;;;;;;;8.82;98.71;100808.38;6219704;23;20003;-74
2023/02/21 02:53:38;;;;;;;0.00;0.00;;;;;;;8.91;98.70;100824.09;6186889;23;20043;-74
2023/02/21 02:56:09;;;;;;;0.00;0.00;;;;;;;8.89;98.82;100825.41;6189905;23;20032;-74
2023/02/21 02:58:45;;;;;;;0.00;0.00;;;;;;;8.89;99.16;100823.53;6191355;23;20001;-72
2023/02/21 03:01:41;;;;;;;0.00;0.00;;;;;;;8.89;99.37;100817.22;6217608;23;20008;-74
2023/02/21 03:04:47;;;;;;;0.00;0.00;;;;;;;8.87;99.45;100813.94;6190538;23;20004;-75
2023/02/21 03:07:33;;;;;;;0.00;0.00;;;;;;;8.91;99.43;100815.91;6184896;23;20121;-73
2023/02/21 03:10:17;;;;;;;0.00;0.00;;;;;;;8.91;99.21;100813.19;6216348;23;19993;-73
2023/02/21 03:13:27;;;;;;;0.00;0.00;;;;;;;8.91;99.08;100812.38;6186402;23;20059;-75
2023/02/21 03:16:01;;;;;;;0.00;0.00;;;;;;;8.90;99.24;100808.81;6085823;23;20006;-74
2023/02/21 03:18:36;;;;;;;0.00;0.00;;;;;;;8.90;99.58;100803.34;6191674;23;20001;-74
2023/02/21 03:21:10;;;;;;;0.00;0.00;;;;;;;8.91;99.34;100802.28;6188133;23;20527;-74
2023/02/21 03:23:38;;;;;;;0.00;0.00;;;;;;;8.89;99.16;100795.41;6183366;23;20092;-73
2023/02/21 03:26:06;;;;;;;0.00;0.00;;;;;;;8.83;99.40;100785.50;6164040;23;20016;-75
2023/02/21 03:28:32;;;;;;;0.00;0.00;;;;;;;8.81;99.51;100783.00;6192697;23;20008;-73
2023/02/21 03:31:01;;;;;;;0.00;0.00;;;;;;;8.78;99.84;100783.50;6220255;23;20004;-74
2023/02/21 03:33:27;;;;;;;0.00;0.00;;;;;;;8.78;99.68;100778.06;6210191;23;20028;-74
2023/02/21 03:35:53;;;;;;;0.00;0.00;;;;;;;8.80;100.00;100772.34;6217487;23;19997;-73
2023/02/21 03:38:18;;;;;;;0.00;0.00;;;;;;;8.80;99.64;100767.72;6192634;23;19989;-73
2023/02/21 03:40:44;;;;;;;0.00;0.00;;;;;;;8.80;99.66;100772.34;6217909;23;20007;-75
2023/02/21 03:43:10;;;;;;;0.00;0.00;;;;;;;8.80;99.66;100764.19;6168517;23;20009;-75
2023/02/21 03:45:35;;;;;;;0.00;0.00;;;;;;;8.80;99.71;100767.72;6219999;23;20446;-73
2023/02/21 03:48:02;;;;;;;0.00;0.00;;;;;;;8.77;99.64;100759.22;6192730;23;20009;-74
2023/02/21 03:50:27;;;;;;;0.00;0.00;;;;;;;8.80;99.51;100770.44;6190892;23;20035;-75
2023/02/21 03:52:53;;;;;;;0.00;0.00;;;;;;;8.80;99.50;100770.44;6194906;23;20372;-74
2023/02/21 03:55:18;;;;;;;0.00;0.00;;;;;;;8.78;99.59;100767.16;6205464;23;20032;-74
2023/02/21 03:57:44;;;;;;;0.00;0.00;;;;;;;8.78;99.62;100772.59;6166951;23;20045;-73
2023/02/21 04:00:11;;;;;;;0.00;0.00;;;;;;;8.79;99.38;100768.81;6170950;23;20023;-75
2023/02/21 04:02:37;;;;;;;0.00;0.00;;;;;;;8.78;99.59;100764.41;6193552;23;19992;-74
2023/02/21 04:05:02;;;;;;;0.00;0.00;;;;;;;8.76;99.69;100758.41;6192053;23;20309;-74
2023/02/21 04:07:28;;;;;;;0.00;0.00;;;;;;;8.77;99.88;100770.94;6192273;23;20012;-74
2023/02/21 04:09:53;;;;;;;0.00;0.00;;;;;;;8.74;99.82;100766.78;6189892;23;20327;-74
2023/02/21 04:12:19;;;;;;;0.00;0.00;;;;;;;8.72;100.00;100757.22;6158098;23;20058;-75
2023/02/21 04:14:44;;;;;;;0.00;0.00;;;;;;;8.69;99.98;100757.72;6162931;23;20115;-74
2023/02/21 04:17:10;;;;;;;0.00;0.00;;;;;;;8.66;100.00;100750.00;6168375;23;20005;-77
2023/02/21 04:19:35;;;;;;;0.00;0.00;;;;;;;8.66;100.00;100741.81;6185777;23;20000;-76
2023/02/21 04:22:01;;;;;;;0.00;0.00;;;;;;;8.68;100.00;100750.59;6216386;23;20013;-73
2023/02/21 04:24:27;;;;;;;0.00;0.00;;;;;;;8.66;100.00;100736.38;6219941;23;20016;-74
2023/02/21 04:26:53;;;;;;;0.00;0.00;;;;;;;8.66;99.97;100734.50;6163074;23;20023;-75
2023/02/21 04:29:20;;;;;;;0.00;0.00;;;;;;;8.52;99.98;100735.88;6163123;23;20016;-77
2023/02/21 04:31:45;;;;;;;0.00;0.00;;;;;;;8.51;100.00;100734.22;6156471;23;20032;-76
2023/02/21 04:34:11;;;;;;;0.00;0.00;;;;;;;8.41;100.00;100723.09;6217413;23;20007;-75
2023/02/21 04:36:37;;;;;;;0.00;0.00;;;;;;;8.41;100.00;100734.84;6163186;23;20008;-75
2023/02/21 04:39:03;;;;;;;0.00;0.00;;;;;;;8.41;100.00;100734.84;6188674;23;20055;-76
2023/02/21 04:41:28;;;;;;;0.00;0.00;;;;;;;8.30;100.00;100713.91;6221020;23;20003;-76
2023/02/21 04:43:54;;;;;;;0.00;0.00;;;;;;;8.33;100.00;100721.59;6165614;23;20005;-76
2023/02/21 04:46:19;;;;;;;0.00;0.00;;;;;;;8.37;100.00;100720.03;6194557;23;20000;-75
2023/02/21 04:48:48;;;;;;;0.00;0.00;;;;;;;8.39;100.00;100731.50;6212463;23;20094;-75
2023/02/21 04:51:17;;;;;;;0.00;0.00;;;;;;;8.43;100.00;100721.78;6186372;23;20324;-76
2023/02/21 04:53:43;;;;;;;0.00;0.00;;;;;;;8.47;100.00;100716.69;6187099;23;20033;-75
2023/02/21 04:56:09;;;;;;;0.00;0.00;;;;;;;8.49;100.00;100715.38;6188989;23;20039;-75
2023/02/21 04:58:35;;;;;;;0.00;0.00;;;;;;;8.52;100.00;100720.34;6184587;23;20066;-75
2023/02/21 05:01:00;;;;;;;0.00;0.00;;;;;;;8.55;100.00;100714.38;6188729;23;20017;-76
2023/02/21 05:03:26;;;;;;;0.00;0.00;;;;;;;8.59;100.00;100713.94;6179767;23;20019;-76
2023/02/21 05:05:51;;;;;;;0.00;0.00;;;;;;;8.54;100.00;100707.31;6161999;23;20022;-77
2023/02/21 05:08:17;;;;;;;0.00;0.00;;;;;;;8.59;100.00;100703.03;6164375;23;20020;-77
2023/02/21 05:10:42;;;;;;;0.00;0.00;;;;;;;8.56;100.00;100707.88;6167788;23;20091;-75
2023/02/21 05:13:08;;;;;;;0.00;0.00;;;;;;;8.56;100.00;100701.59;6189807;23;20383;-76
2023/02/21 05:15:34;;;;;;;0.00;0.00;;;;;;;8.52;100.00;100695.81;6192047;23;20367;-76
2023/02/21 05:17:59;;;;;;;0.00;0.00;;;;;;;8.52;100.00;100703.97;6191295;23;20332;-77
2023/02/21 05:20:24;;;;;;;0.00;0.00;;;;;;;8.54;100.00;100706.47;6180932;23;20060;-77
2023/02/21 05:22:50;;;;;;;0.00;0.00;;;;;;;8.50;100.00;100703.41;6219584;23;20004;-77
2023/02/21 05:25:21;;;;;;;0.00;0.00;;;;;;;8.46;100.00;100704.97;6158849;23;20067;-78
2023/02/21 05:27:52;;;;;;;0.00;0.00;;;;;;;8.44;100.00;100711.69;6188606;23;20007;-77
2023/02/21 05:30:18;;;;;;;0.00;0.00;;;;;;;8.44;100.00;100701.66;6183943;23;20001;-77
2023/02/21 05:32:44;;;;;;;0.00;0.00;;;;;;;8.48;100.00;100708.25;6180558;23;20001;-75
2023/02/21 05:35:10;;;;;;;0.00;0.00;;;;;;;8.50;100.00;100706.13;6187183;23;20096;-76
2023/02/21 05:37:36;;;;;;;0.00;0.00;;;;;;;8.42;100.00;100694.78;6181521;23;20005;-81
2023/02/21 05:40:06;;;;;;;0.00;0.00;;;;;;;8.46;100.00;100698.69;6177035;23;20087;-78
2023/02/21 05:42:35;;;;;;;0.00;0.00;;;;;;;8.44;100.00;100701.66;6191590;23;20024;-77
2023/02/21 05:45:05;;;;;;;0.00;0.00;;;;;;;8.25;100.00;100676.50;6219178;23;20083;-77
2023/02/21 05:47:35;;;;;;;0.00;0.00;;;;;;;8.13;100.00;100657.50;6217961;23;20572;-79
2023/02/21 05:50:03;;;;;;;0.00;0.00;;;;;;;8.33;100.00;100689.72;6169018;23;20032;-78
2023/02/21 05:52:29;;;;;;;0.00;0.00;;;;;;;8.32;100.00;100689.97;6218197;23;20008;-77
2023/02/21 05:54:54;;;;;;;0.00;0.00;;;;;;;8.34;100.00;100696.00;6212848;23;20008;-75
2023/02/21 05:57:20;;;;;;;0.00;0.00;;;;;;;8.36;100.00;100700.13;6156666;23;20005;-76
2023/02/21 05:59:54;;;;;;;0.00;0.00;;;;;;;8.30;100.00;100689.38;6160162;23;20017;-75
2023/02/21 06:02:19;;;;;;;0.00;0.00;;;;;;;8.37;100.00;100696.34;6169227;23;20005;-75
2023/02/21 06:04:45;;;;;;;0.00;0.00;;;;;;;8.34;100.00;100696.00;6161025;23;20017;-75
2023/02/21 06:07:10;;;;;;;0.00;0.00;;;;;;;8.29;100.00;100693.19;6193793;23;20016;-75
2023/02/21 06:09:36;;;;;;;0.00;0.00;;;;;;;8.32;100.00;100698.13;6157303;23;20019;-75
2023/02/21 06:12:01;;;;;;;0.00;0.00;;;;;;;8.30;100.00;100687.47;6165296;23;20016;-75
2023/02/21 06:14:27;;;;;;;0.00;0.00;;;;;;;8.28;100.00;100694.22;6189871;23;20000;-76
2023/02/21 06:16:52;;;;;;;0.00;0.00;;;;;;;8.31;100.00;100691.88;6184928;23;20004;-76
2023/02/21 06:19:18;;;;;;;0.00;0.00;;;;;;;8.27;100.00;100684.44;6192736;23;19995;-77
2023/02/21 06:21:44;;;;;;;0.03;0.03;;;;;;;8.32;100.00;100687.22;6188960;23;20027;-77
2023/02/21 06:24:11;;;;;;;0.00;0.00;;;;;;;8.29;100.00;100683.09;6168509;23;20070;-76
2023/02/21 06:26:39;;;;;;;0.00;0.00;;;;;;;8.28;100.00;100686.06;6193816;23;20004;-77
2023/02/21 06:29:06;;;;;;;0.00;0.00;;;;;;;8.29;100.00;100683.09;6223513;23;20009;-76
2023/02/21 06:31:32;;;;;;;0.00;0.00;;;;;;;8.12;100.00;100666.72;6225172;23;20001;-78
2023/02/21 06:33:58;;;;;;;0.00;0.00;;;;;;;8.23;100.00;100691.44;6192867;23;20015;-77
2023/02/21 06:36:26;;;;;;;0.00;0.00;;;;;;;8.15;100.00;100685.31;6192181;23;20094;-77
2023/02/21 06:38:54;;;;;;;0.00;0.00;;;;;;;8.17;100.00;100691.31;6183673;23;20005;-77
2023/02/21 06:41:29;;;;;;;0.00;0.00;;;;;;;8.16;100.00;100689.69;6167883;23;20004;-77
2023/02/21 06:43:55;;;;;;;;;;;;;;;8.11;100.00;100695.03;6189250;23;20001;-77
2023/02/21 06:46:26;;;;;;;0.00;0.00;;;;;;;7.98;100.00;100668.09;6184414;23;19916;-77
2023/02/21 06:48:52;;;;;;;0.00;0.00;;;;;;;8.01;100.00;100682.03;6184513;23;20078;-77
2023/02/21 06:51:17;;;;;;;0.00;0.00;;;;;;;7.99;100.00;100667.84;6165188;23;20095;-76
2023/02/21 06:53:44;;;;;;;0.00;0.00;;;;;;;8.04;100.00;100676.13;6192788;23;20012;-77
2023/02/21 06:56:09;;;;;;;0.00;0.00;;;;;;;7.94;100.00;100651.38;6163715;23;20400;-79
2023/02/21 06:58:35;;;;;;;0.10;0.10;;;;;;;8.06;100.00;100656.81;6143015;23;20001;-77
2023/02/21 07:01:01;;;;;;;0.05;0.05;;;;;;;8.15;100.00;100666.22;6140222;23;20068;-76
2023/02/21 07:03:28;;;;;;;0.00;0.00;;;;;;;8.08;100.00;100671.00;6218424;23;20423;-76
2023/02/21 07:05:53;;;;;;;0.00;0.00;;;;;;;8.00;100.00;100649.59;6189402;23;19996;-78
2023/02/21 07:08:21;;;;;;;0.00;0.00;;;;;;;8.10;100.00;100657.94;6159383;23;20021;-76
2023/02/21 07:10:47;;;;;;;0.00;0.00;;;;;;;8.08;100.00;100667.47;6167060;23;20746;-77
2023/02/21 07:13:14;;;;;;;0.00;0.00;;;;;;;7.95;100.00;100638.63;6137368;23;20009;-76
2023/02/21 07:15:39;;;;;;;0.00;0.00;;;;;;;8.12;100.00;100655.84;6190778;23;20000;-77
2023/02/21 07:18:05;;;;;;;0.00;0.00;;;;;;;8.07;100.00;100642.09;6138780;23;20007;-78
2023/02/21 07:20:32;;;;;;;0.00;0.00;;;;;;;8.18;100.00;100668.47;6190393;23;19997;-79
2023/02/21 07:22:57;;;;;;;0.00;0.00;;;;;;;8.16;100.00;100654.28;6190439;23;20012;-75
2023/02/21 07:25:23;;;;;;;0.00;0.00;;;;;;;8.23;100.00;100656.84;6165075;23;20004;-76
2023/02/21 07:27:51;;;;;;;0.00;0.00;;;;;;;8.21;100.00;100656.25;6191090;23;20421;-75
2023/02/21 07:30:17;;;;;;;0.00;0.00;;;;;;;8.24;100.00;100663.94;6213192;23;20024;-78
2023/02/21 07:32:42;;;;;;;0.00;0.00;;;;;;;8.28;100.00;100664.25;6193086;23;20470;-77
2023/02/21 07:35:11;;;;;;;0.00;0.00;;;;;;;8.21;100.00;100656.25;6188630;23;20031;-77
2023/02/21 07:37:36;;;;;;;0.00;0.00;;;;;;;8.31;100.00;100670.06;6193769;23;20051;-77
2023/02/21 07:40:04;;;;;;;0.00;0.00;;;;;;;8.21;100.00;100648.09;6166716;23;20004;-77
2023/02/21 07:42:29;;;;;;;0.00;0.00;;;;;;;8.34;100.00;100657.84;6193269;23;20020;-76
2023/02/21 07:44:56;;;;;;;0.00;0.00;;;;;;;8.36;100.00;100655.69;6169952;23;20005;-76
2023/02/21 07:47:22;;;;;;;0.00;0.00;;;;;;;8.48;100.00;100670.09;6162581;23;20099;-76
2023/02/21 07:49:53;;;;;;;0.00;0.00;;;;;;;8.44;100.00;100658.06;6192699;23;20015;-80
2023/02/21 07:52:20;;;;;;;0.00;0.00;;;;;;;8.46;99.99;100666.81;6193339;23;20005;-78
2023/02/21 07:54:49;;;;;;;0.00;0.00;;;;;;;8.48;99.47;100664.66;6192016;23;20095;-78
2023/02/21 07:57:16;;;;;;;0.00;0.00;;;;;;;8.52;99.14;100660.38;6168775;23;20008;-80
2023/02/21 07:59:41;;;;;;;0.00;0.00;;;;;;;8.59;99.31;100670.31;6167349;23;20004;-77
2023/02/21 08:02:11;;;;;;;0.00;0.00;;;;;;;8.68;99.19;100675.09;6147126;23;20081;-79
2023/02/21 08:05:12;;;;;;;0.00;0.00;;;;;;;8.74;98.45;100679.53;6193205;23;20000;-78
2023/02/21 08:07:37;;;;;;;0.00;0.00;;;;;;;8.71;97.76;100671.03;6182947;23;20012;-78
2023/02/21 08:10:03;;;;;;;0.00;0.00;;;;;;;8.62;97.92;100669.81;6144618;23;20096;-78
2023/02/21 08:12:28;;;;;;;0.00;0.00;;;;;;;8.54;97.95;100674.59;6221400;23;20075;-78
2023/02/21 08:14:54;;;;;;;0.00;0.00;;;;;;;8.59;98.21;100692.94;6168452;23;20005;-79
2023/02/21 08:17:19;;;;;;;0.00;0.00;;;;;;;8.47;97.23;100692.16;6194706;23;20064;-79
2023/02/21 08:19:45;;;;;;;0.00;0.00;;;;;;;8.44;97.13;100693.50;6194129;23;19989;-78
2023/02/21 08:22:10;;;;;;;0.00;0.00;;;;;;;8.42;97.39;100687.41;6195426;23;20087;-78
2023/02/21 08:24:36;;;;;;;0.00;0.00;;;;;;;8.48;97.02;100691.91;6170081;23;20017;-80
2023/02/21 08:27:02;;;;;;;0.00;0.00;;;;;;;8.46;96.82;100699.50;6166365;23;20016;-78
2023/02/21 08:29:30;;;;;;;0.10;0.10;;;;;;;8.31;96.85;100691.03;6168611;23;20022;-78
2023/02/21 08:31:55;;;;;;;0.00;0.00;;;;;;;8.11;96.43;100667.78;6166951;23;20032;-78
2023/02/21 08:34:20;;;;;;;0.00;0.00;;;;;;;8.14;97.21;100680.91;6195445;23;20004;-79
2023/02/21 08:36:46;;;;;;;0.00;0.00;;;;;;;8.19;97.55;100689.19;6167235;23;20019;-78
2023/02/21 08:39:14;;;;;;;0.00;0.00;;;;;;;8.15;97.59;100687.22;6144556;23;20061;-78
2023/02/21 08:41:43;;;;;;;0.00;0.00;;;;;;;8.16;98.09;100684.25;6170088;23;20019;-77
2023/02/21 08:44:11;;;;;;;0.00;0.00;;;;;;;8.14;98.48;100669.19;6193840;23;20036;-78
2023/02/21 08:46:47;;;;;;;0.00;0.00;;;;;;;8.21;99.08;100673.44;6187364;23;20025;-80
2023/02/21 08:49:43;;;;;;;;;;;;;;;;;;;;;
2023/02/21 08:55:24;;;;;;;0.00;0.00;;;;;;;8.47;97.61;100694.88;6097025;23;20010;-78
2023/02/21 08:58:10;;;;;;;0.00;0.00;;;;;;;8.24;97.59;100653.03;6094815;23;20034;-77
2023/02/21 09:00:44;;;;;;;0.00;0.00;;;;;;;8.35;96.96;100675.84;6167370;23;20039;-78
2023/02/21 09:03:12;;;;;;;0.00;0.00;;;;;;;8.20;97.53;100649.97;6165224;23;20019;-78
2023/02/21 09:05:38;;;;;;;0.00;0.00;;;;;;;8.26;97.63;100666.41;6164446;23;20005;-78
2023/02/21 09:08:04;;;;;;;0.00;0.00;;;;;;;8.37;97.67;100671.00;6163434;23;20016;-77
2023/02/21 09:10:36;;;;;;;0.05;0.05;;;;;;;8.38;97.81;100675.34;6142860;23;20023;-78
2023/02/21 09:13:03;;;;;;;0.00;0.00;;;;;;;8.47;97.55;100673.06;6190020;23;20408;-78
2023/02/21 09:15:34;;;;;;;0.00;0.00;;;;;;;8.50;97.41;100678.88;6218869;23;20000;-77
2023/02/21 09:18:00;;;;;;;0.00;0.00;;;;;;;8.55;97.54;100673.50;6191863;23;20027;-77
2023/02/21 09:20:41;;;;;;;;;;;;;;;;;;;;;
2023/02/21 09:23:17;;;;;;;;;;;;;;;;;;;;;
2023/02/21 09:25:42;;;;;;;0.00;0.00;;;;;;;8.58;97.49;100674.09;6230651;23;20000;-77
2023/02/21 09:28:12;;;;;;;0.00;0.00;;;;;;;8.64;97.81;100662.19;6195300;23;20012;-76
2023/02/21 09:30:38;;;;;;;0.00;0.00;;;;;;;8.79;97.34;100670.63;6170011;23;20009;-78
2023/02/21 09:33:06;;;;;;;0.00;0.00;;;;;;;8.90;96.93;100669.72;6142958;23;20020;-77
2023/02/21 09:35:32;;;;;;;0.00;0.00;;;;;;;9.17;96.33;100660.84;6190209;23;20008;-77
2023/02/21 09:37:59;;;;;;;0.00;0.00;;;;;;;9.22;94.78;100669.09;6192536;23;20005;-76
2023/02/21 09:40:43;;;;;;;0.00;0.00;;;;;;;9.18;93.40;100665.22;6161687;23;20436;-77
2023/02/21 09:43:19;;;;;;;0.00;0.00;;;;;;;9.17;92.99;100660.84;6192316;23;20001;-77
2023/02/21 09:45:48;;;;;;;0.00;0.00;;;;;;;9.25;93.15;100657.66;6191646;23;19997;-77
2023/02/21 09:48:18;;;;;;;0.00;0.00;;;;;;;9.52;93.53;100662.41;6220943;23;20419;-77
2023/02/21 09:50:50;;;;;;;0.00;0.00;;;;;;;9.72;92.59;100661.81;6218395;23;20005;-77
2023/02/21 09:53:28;;;;;;;0.00;0.00;;;;;;;9.88;92.00;100657.38;6191169;23;20087;-77
2023/02/21 09:55:59;;;;;;;0.00;0.00;;;;;;;9.85;91.38;100659.81;6216868;23;20000;-77
2023/02/21 09:58:25;;;;;;;0.00;0.00;;;;;;;9.66;89.96;100656.56;6191676;23;20008;-78
2023/02/21 10:00:51;;;;;;;0.00;0.00;;;;;;;9.50;89.58;100653.63;6190696;23;20036;-77
2023/02/21 10:03:32;;;;;;;;;;;;;;;;;;;;;
2023/02/21 10:06:11;;;;;;;0.00;0.00;;;;;;;9.39;89.93;100640.97;6217468;23;20422;-77
2023/02/21 10:08:45;;;;;;;0.00;0.00;;;;;;;9.44;89.49;100630.09;6216051;23;20463;-77
2023/02/21 10:11:20;;;;;;;0.00;0.00;;;;;;;9.65;89.37;100646.72;6191045;23;20382;-77
2023/02/21 10:14:00;;;;;;;0.00;0.00;;;;;;;9.68;89.45;100648.94;6191432;23;20010;-76
2023/02/21 10:16:32;;;;;;;0.00;0.00;;;;;;;9.69;89.41;100645.94;6215508;23;20131;-78
2023/02/21 10:19:30;;;;;;;0.00;0.00;;;;;;;10.06;89.88;100644.44;6218513;23;19997;-77
2023/02/21 10:21:58;;;;;;;0.00;0.00;;;;;;;10.20;88.80;100639.41;6172508;23;20004;-77
2023/02/21 10:24:25;;;;;;;0.00;0.00;;;;;;;10.11;88.64;100634.41;6168810;23;20009;-76
2023/02/21 10:27:06;;;;;;;0.00;0.00;;;;;;;10.17;88.66;100638.00;6191058;23;20023;-77
2023/02/21 10:29:44;;;;;;;0.00;0.00;;;;;;;10.03;88.21;100634.88;6192818;23;20001;-76
2023/02/21 10:32:09;;;;;;;0.00;0.00;;;;;;;9.93;88.85;100624.66;6189287;23;20076;-78
2023/02/21 10:34:56;;;;;;;0.00;0.00;;;;;;;9.94;89.85;100629.06;6142584;23;20352;-77
2023/02/21 10:37:59;;;;;;;0.00;0.00;;;;;;;9.90;89.18;100617.00;6219055;23;20005;-76
2023/02/21 10:40:34;;;;;;;0.00;0.00;;;;;;;10.09;88.30;100627.53;6193052;23;20031;-76
2023/02/21 10:43:08;;;;;;;;;;;;;;;10.28;87.09;100637.03;6195093;23;20005;-76
2023/02/21 10:46:00;;;;;;;0.00;0.00;;;;;;;10.48;85.95;100630.97;6184700;23;19912;-76
2023/02/21 10:48:31;;;;;;;0.00;0.00;;;;;;;10.58;84.59;100630.22;6164603;23;20013;-77
2023/02/21 10:50:57;;;;;;;0.00;0.00;;;;;;;10.75;83.42;100640.22;6163332;23;20031;-78
2023/02/21 10:53:31;;;;;;;0.00;0.00;;;;;;;10.72;81.91;100618.81;6165195;23;20017;-77
2023/02/21 10:56:11;;;;;;;0.00;0.00;;;;;;;10.70;81.31;100626.47;6189125;23;20005;-76
2023/02/21 10:58:36;;;;;;;0.00;0.00;;;;;;;10.38;82.17;100608.16;6165946;23;20005;-76
2023/02/21 11:01:38;;;;;;;0.00;0.00;;;;;;;10.47;83.00;100625.75;6136429;23;20443;-77
2023/02/21 11:04:11;;;;;;;0.00;0.00;;;;;;;10.28;83.09;100615.16;6163361;23;20009;-78
2023/02/21 11:06:42;;;;;;;0.00;0.00;;;;;;;10.23;83.84;100617.03;6137765;23;20000;-77
2023/02/21 11:09:26;;;;;;;0.00;0.00;;;;;;;10.23;84.00;100617.03;6162713;23;20085;-77
2023/02/21 11:12:08;;;;;;;0.00;0.00;;;;;;;10.19;83.30;100613.16;6189143;23;19997;-76
2023/02/21 11:14:34;;;;;;;0.00;0.00;;;;;;;9.96;83.66;100612.41;6163369;23;20020;-76
2023/02/21 11:17:19;;;;;;;0.00;0.00;;;;;;;9.78;84.50;100610.81;6163884;23;20013;-78
2023/02/21 11:19:46;;;;;;;;;;;;;;;9.73;85.68;100608.88;6135769;23;20017;-76
2023/02/21 11:22:13;;;;;;;0.00;0.00;;;;;;;9.78;86.26;100613.56;6161464;23;20256;-77
2023/02/21 11:24:52;;;;;;;0.00;0.00;;;;;;;9.69;86.73;100604.19;6190041;23;20020;-75
2023/02/21 11:27:18;;;;;;;0.00;0.00;;;;;;;9.72;87.23;100611.84;6161183;23;20087;-76
2023/02/21 11:29:47;;;;;;;0.00;0.00;;;;;;;9.88;87.38;100610.94;6160800;23;20013;-76
2023/02/21 11:32:26;;;;;;;0.00;0.00;;;;;;;9.99;87.35;100600.13;6158761;23;20332;-76
2023/02/21 11:35:01;;;;;;;0.00;0.00;;;;;;;10.07;86.78;100602.41;6187143;23;20005;-77
2023/02/21 11:37:27;;;;;;;0.00;0.00;;;;;;;9.92;86.40;100600.34;6161870;23;20001;-77
2023/02/21 11:39:53;;;;;;;0.00;0.00;;;;;;;9.90;87.42;100603.31;6186213;23;20462;-76
2023/02/21 11:42:24;;;;;;;0.00;0.00;;;;;;;10.03;86.52;100602.09;6190017;23;20009;-77
2023/02/21 11:45:08;;;;;;;0.00;0.00;;;;;;;10.27;85.15;100601.78;6159991;23;19999;-76
2023/02/21 11:47:45;;;;;;;0.00;0.00;;;;;;;10.45;84.37;100595.09;6164422;23;20009;-76
2023/02/21 11:50:30;;;;;;;0.00;0.00;;;;;;;10.65;82.95;100581.59;6187941;23;20009;-77
2023/02/21 11:53:06;;;;;;;0.00;0.00;;;;;;;10.70;80.77;100588.19;6162644;23;20009;-78
2023/02/21 11:55:33;;;;;;;0.00;0.00;;;;;;;10.80;79.60;100580.03;6162538;23;20088;-76
2023/02/21 11:58:23;;;;;;;0.00;0.00;;;;;;;11.03;79.60;100581.56;6140022;23;20020;-76
2023/02/21 12:01:05;;;;;;;0.00;0.00;;;;;;;10.90;78.82;100576.56;6171535;23;20001;-76
2023/02/21 12:04:04;;;;;;;0.00;0.00;;;;;;;10.97;79.96;100566.22;6171749;23;20001;-77
2023/02/21 12:06:42;;;;;;;0.00;0.00;;;;;;;10.87;80.18;100572.44;6169845;23;20009;-76
2023/02/21 12:09:18;;;;;;;0.00;0.00;;;;;;;10.68;80.61;100563.03;6167176;23;20021;-77
2023/02/21 12:12:02;;;;;;;0.00;0.00;;;;;;;10.61;80.50;100569.53;6164481;23;20009;-77
2023/02/21 12:14:51;;;;;;;0.00;0.00;;;;;;;10.52;81.51;100557.44;6166338;23;20084;-76
2023/02/21 12:17:31;;;;;;;0.00;0.00;;;;;;;10.55;80.58;100548.69;6162107;23;20005;-77
2023/02/21 12:20:10;;;;;;;0.00;0.00;;;;;;;10.97;81.00;100555.25;6191200;23;20001;-75
2023/02/21 12:22:59;;;;;;;0.00;0.00;;;;;;;11.22;79.58;100548.28;6186520;23;20044;-76
2023/02/21 12:25:24;;;;;;;0.00;0.00;;;;;;;11.14;79.14;100546.84;6162526;23;20005;-77
2023/02/21 12:27:49;;;;;;;0.00;0.00;;;;;;;11.00;80.29;100539.13;6163039;23;20058;-77
2023/02/21 12:30:45;;;;;;;0.00;0.00;;;;;;;11.10;79.55;100532.06;6166238;23;20017;-76
2023/02/21 12:34:03;;;;;;;0.00;0.00;;;;;;;11.17;79.82;100543.59;6192772;23;20009;-74
2023/02/21 12:36:44;;;;;;;0.00;0.00;;;;;;;11.30;77.89;100534.03;6166956;23;20001;-75
2023/02/21 12:39:15;;;;;;;0.00;0.00;;;;;;;11.25;76.94;100539.50;6189745;23;20008;-76
2023/02/21 12:42:04;;;;;;;0.00;0.00;;;;;;;11.22;76.80;100529.91;6166657;23;19985;-77
2023/02/21 12:44:35;;;;;;;0.00;0.00;;;;;;;11.29;76.53;100530.50;6164677;23;20182;-77
2023/02/21 12:47:27;;;;;;;0.00;0.00;;;;;;;11.37;76.44;100526.41;6166345;23;20089;-74
2023/02/21 12:50:01;;;;;;;0.00;0.00;;;;;;;11.46;75.83;100530.28;6189726;23;20012;-76
2023/02/21 12:52:37;;;;;;;0.00;0.00;;;;;;;11.28;74.38;100523.38;6165104;23;20009;-76
2023/02/21 12:55:17;;;;;;;0.00;0.00;;;;;;;11.03;75.75;100520.53;6166240;23;20001;-75
2023/02/21 12:58:20;;;;;;;0.00;0.00;;;;;;;10.80;76.36;100514.41;6161821;23;19997;-76
2023/02/21 13:00:55;;;;;;;0.00;0.00;;;;;;;10.87;76.17;100509.50;6161999;23;20008;-77
2023/02/21 13:03:36;;;;;;;0.00;0.00;;;;;;;10.95;76.56;100514.50;6190371;23;20084;-77
2023/02/21 13:06:05;;;;;;;0.00;0.00;;;;;;;11.17;76.02;100499.81;6163309;23;20012;-77
2023/02/21 13:09:01;;;;;;;0.00;0.00;;;;;;;11.68;74.30;100499.94;6189348;23;20004;-75
2023/02/21 13:11:36;;;;;;;0.00;0.00;;;;;;;12.47;71.49;100498.84;6186899;23;20249;-76
2023/02/21 13:14:09;;;;;;;0.00;0.00;;;;;;;12.98;69.28;100493.25;6189782;23;20055;-76
2023/02/21 13:16:35;;;;;;;0.00;0.00;;;;;;;13.05;69.28;100482.78;6158353;23;20090;-77
2023/02/21 13:19:06;;;;;;;0.00;0.00;;;;;;;13.16;68.69;100489.03;6140261;23;20033;-74
2023/02/21 13:21:51;;;;;;;0.00;0.00;;;;;;;13.26;68.80;100488.19;6160084;23;20322;-76
2023/02/21 13:24:41;;;;;;;0.00;0.00;;;;;;;13.09;66.16;100477.53;6165187;23;20032;-77
2023/02/21 13:27:36;;;;;;;0.00;0.00;;;;;;;13.86;66.49;100468.03;6162274;23;20013;-78
2023/02/21 13:30:30;;;;;;;0.00;0.00;;;;;;;16.97;60.13;100472.53;6163987;23;20028;-78
2023/02/21 13:33:00;;;;;;;0.00;0.00;;;;;;;19.87;53.40;100463.53;6151353;23;20005;-77
2023/02/21 13:35:57;;;;;;;0.00;0.00;;;;;;;19.59;48.57;100474.09;6188790;23;20431;-76
2023/02/21 13:38:37;;;;;;;0.00;0.00;;;;;;;18.09;49.53;100458.09;6167793;23;20024;-77
2023/02/21 13:41:42;;;;;;;0.00;0.00;;;;;;;16.86;53.18;100450.63;6162885;23;20009;-76
2023/02/21 13:45:08;;;;;;;;;;;;;;;;;;;;;
2023/02/21 13:48:31;;;;;;;;;;;;;;;;;;;;;
2023/02/21 13:51:57;;;;;;;;;;;;;;;;;;;;;
2023/02/21 13:54:24;;;;;;;0.00;0.00;;;;;;;15.13;57.11;100404.47;6201878;23;20013;-75
2023/02/21 13:56:51;;;;;;;0.00;0.00;;;;;;;15.71;55.90;100416.28;6194465;23;20005;-76
2023/02/21 13:59:36;;;;;;;0.00;0.00;;;;;;;18.02;50.98;100441.13;6215974;23;20057;-77
2023/02/21 14:02:34;;;;;;;0.00;0.00;;;;;;;19.43;46.06;100423.03;6220336;23;20075;-77
2023/02/21 14:05:03;;;;;;;0.00;0.00;;;;;;;18.24;47.45;100420.91;6088857;23;20095;-76
2023/02/21 14:07:47;;;;;;;0.00;0.00;;;;;;;16.86;48.61;100417.47;6219978;23;20011;-77
2023/02/21 14:10:24;;;;;;;0.00;0.00;;;;;;;16.14;50.63;100401.53;6194456;23;20455;-77
2023/02/21 14:12:56;;;;;;;0.00;0.00;;;;;;;15.62;51.26;100396.03;6218235;23;20019;-76
2023/02/21 14:15:22;;;;;;;0.00;0.00;;;;;;;15.78;53.05;100386.41;6194221;23;19992;-76
2023/02/21 14:17:50;;;;;;;0.00;0.00;;;;;;;16.21;51.08;100391.72;6195867;23;20027;-78
2023/02/21 14:20:19;;;;;;;0.00;0.00;;;;;;;15.97;51.21;100380.84;6169000;23;20012;-77
2023/02/21 14:22:44;;;;;;;0.00;0.00;;;;;;;15.79;52.05;100377.03;6220260;23;20023;-77
2023/02/21 14:25:20;;;;;;;0.00;0.00;;;;;;;16.40;52.21;100371.50;6191746;23;20359;-78